<?xml version="1.0" encoding="UTF-8" standalone="no" ?>
<gpx xmlns="http://www.topografix.com/GPX/1/1" xmlns:xsi="http://www.w3.org/2001/XMLSchema-instance" xsi:schemaLocation="http://www.topografix.com/GPX/1/1 http://www.topografix.com/GPX/1/1/gpx.xsd" version="1.1" creator="VisuGPX - https://www.visugpx.com">
  <metadata>
    <name>Cazevieille - Pic Saint-Loup</name>
    <desc><![CDATA[2017-03 - Cazevieille - Pic Saint-Loup - col de la Pousterle

[b]album[/b] : [url]https://goo.gl/photos/uQHsctUdGgpLJXnA7[/url]
[img]https://4.bp.blogspot.com/-SSEODm1ua-o/WOjk8DJC3sI/AAAAAAAASGg/23G4mC1aUwUVzO-AMJW8s8kzvqNQUqjBwCLcB/s1600/2017-03_pic-st-loup_i.JPG[/img]
[b]Idées de randonnées dans la même région[/b]
Parcours : [url]https://www.visugpx.com/membres/24856/causses/garrigues-montpellier/[/url]
Photos : [url]https://jcvertygo.blogspot.com/p/nord-montpellier.html[/url]]]></desc>
  </metadata>
  <trk>
    <name><![CDATA[Cazevieille - Pic Saint-Loup_1]]></name>
    <trkseg>
      <trkpt lat="43.77024" lon="3.79243">
        <ele>287.5</ele>
        <time>2017-03-17T11:15:58Z</time>
      </trkpt>
      <trkpt lat="43.77022" lon="3.79241">
        <ele>287.5</ele>
        <time>2017-03-17T11:16:03Z</time>
      </trkpt>
      <trkpt lat="43.77022" lon="3.79237">
        <ele>287.5</ele>
        <time>2017-03-17T11:16:13Z</time>
      </trkpt>
      <trkpt lat="43.77024" lon="3.79234">
        <ele>287.5</ele>
        <time>2017-03-17T11:16:18Z</time>
      </trkpt>
      <trkpt lat="43.77026" lon="3.79228">
        <ele>285.99877854208</ele>
        <time>2017-03-17T11:16:23Z</time>
      </trkpt>
      <trkpt lat="43.77029" lon="3.79223">
        <ele>285.99877854208</ele>
        <time>2017-03-17T11:16:28Z</time>
      </trkpt>
      <trkpt lat="43.77035" lon="3.79215">
        <ele>287.27275304497</ele>
        <time>2017-03-17T11:16:34Z</time>
      </trkpt>
      <trkpt lat="43.77039" lon="3.79212">
        <ele>287.27275304497</ele>
        <time>2017-03-17T11:16:38Z</time>
      </trkpt>
      <trkpt lat="43.77045" lon="3.79211">
        <ele>288.59782374651</ele>
        <time>2017-03-17T11:16:43Z</time>
      </trkpt>
      <trkpt lat="43.77055" lon="3.79199">
        <ele>289.9035051459</ele>
        <time>2017-03-17T11:17:00Z</time>
      </trkpt>
      <trkpt lat="43.77075" lon="3.79166">
        <ele>291.09754484082</ele>
        <time>2017-03-17T11:17:41Z</time>
      </trkpt>
      <trkpt lat="43.77076" lon="3.79164">
        <ele>291.09754484082</ele>
        <time>2017-03-17T11:17:41Z</time>
      </trkpt>
      <trkpt lat="43.77095" lon="3.79132">
        <ele>292.28196995847</ele>
        <time>2017-03-17T11:18:18Z</time>
      </trkpt>
      <trkpt lat="43.77129" lon="3.79143">
        <ele>293.41407472584</ele>
        <time>2017-03-17T11:19:21Z</time>
      </trkpt>
      <trkpt lat="43.77145" lon="3.79154">
        <ele>294.62507440184</ele>
        <time>2017-03-17T11:19:45Z</time>
      </trkpt>
      <trkpt lat="43.77166" lon="3.79172">
        <ele>296.02414020058</ele>
        <time>2017-03-17T11:20:30Z</time>
      </trkpt>
      <trkpt lat="43.7717" lon="3.79186">
        <ele>297.51658890383</ele>
        <time>2017-03-17T11:20:42Z</time>
      </trkpt>
      <trkpt lat="43.77172" lon="3.79188">
        <ele>297.51658890383</ele>
        <time>2017-03-17T11:20:42Z</time>
      </trkpt>
      <trkpt lat="43.77172" lon="3.79189">
        <ele>297.51658890383</ele>
        <time>2017-03-17T11:20:43Z</time>
      </trkpt>
      <trkpt lat="43.77174" lon="3.79203">
        <ele>299.11968019117</ele>
        <time>2017-03-17T11:21:00Z</time>
      </trkpt>
      <trkpt lat="43.77179" lon="3.79213">
        <ele>299.11968019117</ele>
        <time>2017-03-17T11:21:17Z</time>
      </trkpt>
      <trkpt lat="43.77181" lon="3.79216">
        <ele>300.7748633238</ele>
        <time>2017-03-17T11:21:20Z</time>
      </trkpt>
      <trkpt lat="43.77202" lon="3.79228">
        <ele>302.46533161572</ele>
        <time>2017-03-17T11:21:54Z</time>
      </trkpt>
      <trkpt lat="43.77207" lon="3.79227">
        <ele>302.46533161572</ele>
        <time>2017-03-17T11:21:54Z</time>
      </trkpt>
      <trkpt lat="43.77208" lon="3.79226">
        <ele>302.46533161572</ele>
        <time>2017-03-17T11:22:14Z</time>
      </trkpt>
      <trkpt lat="43.77218" lon="3.79223">
        <ele>304.35998679626</ele>
        <time>2017-03-17T11:22:25Z</time>
      </trkpt>
      <trkpt lat="43.77225" lon="3.79227">
        <ele>304.35998679626</ele>
        <time>2017-03-17T11:22:38Z</time>
      </trkpt>
      <trkpt lat="43.7725" lon="3.7926">
        <ele>307.48986877045</ele>
        <time>2017-03-17T11:23:40Z</time>
      </trkpt>
      <trkpt lat="43.77254" lon="3.79263">
        <ele>307.48986877045</ele>
        <time>2017-03-17T11:23:45Z</time>
      </trkpt>
      <trkpt lat="43.77255" lon="3.79263">
        <ele>307.48986877045</ele>
        <time>2017-03-17T11:23:48Z</time>
      </trkpt>
      <trkpt lat="43.77267" lon="3.79282">
        <ele>310.93626145935</ele>
        <time>2017-03-17T11:24:18Z</time>
      </trkpt>
      <trkpt lat="43.7728" lon="3.79303">
        <ele>314.80282675904</ele>
        <time>2017-03-17T11:25:15Z</time>
      </trkpt>
      <trkpt lat="43.77281" lon="3.79317">
        <ele>318.7257160773</ele>
        <time>2017-03-17T11:25:40Z</time>
      </trkpt>
      <trkpt lat="43.7728" lon="3.79332">
        <ele>322.7999996266</ele>
        <time>2017-03-17T11:25:48Z</time>
      </trkpt>
      <trkpt lat="43.77283" lon="3.79344">
        <ele>326.7017626927</ele>
        <time>2017-03-17T11:26:16Z</time>
      </trkpt>
      <trkpt lat="43.77287" lon="3.79358">
        <ele>330.44496901147</ele>
        <time>2017-03-17T11:26:33Z</time>
      </trkpt>
      <trkpt lat="43.77289" lon="3.79362">
        <ele>330.44496901147</ele>
        <time>2017-03-17T11:26:34Z</time>
      </trkpt>
      <trkpt lat="43.77289" lon="3.79363">
        <ele>330.44496901147</ele>
        <time>2017-03-17T11:26:34Z</time>
      </trkpt>
      <trkpt lat="43.77287" lon="3.79371">
        <ele>334.15048297803</ele>
        <time>2017-03-17T11:26:43Z</time>
      </trkpt>
      <trkpt lat="43.7729" lon="3.79386">
        <ele>337.86472690639</ele>
        <time>2017-03-17T11:27:02Z</time>
      </trkpt>
      <trkpt lat="43.77291" lon="3.79396">
        <ele>337.86472690639</ele>
        <time>2017-03-17T11:27:14Z</time>
      </trkpt>
      <trkpt lat="43.77297" lon="3.79413">
        <ele>341.87987270973</ele>
        <time>2017-03-17T11:27:45Z</time>
      </trkpt>
      <trkpt lat="43.773" lon="3.79416">
        <ele>341.87987270973</ele>
        <time>2017-03-17T11:27:45Z</time>
      </trkpt>
      <trkpt lat="43.773" lon="3.79416">
        <ele>341.87987270973</ele>
        <time>2017-03-17T11:28:00Z</time>
      </trkpt>
      <trkpt lat="43.7731" lon="3.79425">
        <ele>345.76747554645</ele>
        <time>2017-03-17T11:28:10Z</time>
      </trkpt>
      <trkpt lat="43.77317" lon="3.79429">
        <ele>345.76747554645</ele>
        <time>2017-03-17T11:28:35Z</time>
      </trkpt>
      <trkpt lat="43.77372" lon="3.7955">
        <ele>351.58337112437</ele>
        <time>2017-03-17T11:30:33Z</time>
      </trkpt>
      <trkpt lat="43.77373" lon="3.79554">
        <ele>351.58337112437</ele>
        <time>2017-03-17T11:30:40Z</time>
      </trkpt>
      <trkpt lat="43.7738" lon="3.79572">
        <ele>357.53474229304</ele>
        <time>2017-03-17T11:31:08Z</time>
      </trkpt>
      <trkpt lat="43.774" lon="3.79606">
        <ele>363.18304895779</ele>
        <time>2017-03-17T11:31:55Z</time>
      </trkpt>
      <trkpt lat="43.77411" lon="3.79619">
        <ele>368.3440950297</ele>
        <time>2017-03-17T11:32:12Z</time>
      </trkpt>
      <trkpt lat="43.77414" lon="3.79624">
        <ele>368.3440950297</ele>
        <time>2017-03-17T11:32:12Z</time>
      </trkpt>
      <trkpt lat="43.77422" lon="3.7965">
        <ele>373.3230977268</ele>
        <time>2017-03-17T11:32:43Z</time>
      </trkpt>
      <trkpt lat="43.77443" lon="3.79723">
        <ele>378.6883210156</ele>
        <time>2017-03-17T11:34:06Z</time>
      </trkpt>
      <trkpt lat="43.77441" lon="3.7974">
        <ele>383.8101507001</ele>
        <time>2017-03-17T11:34:14Z</time>
      </trkpt>
      <trkpt lat="43.77441" lon="3.7974">
        <ele>383.8101507001</ele>
        <time>2017-03-17T11:34:15Z</time>
      </trkpt>
      <trkpt lat="43.77441" lon="3.79744">
        <ele>383.8101507001</ele>
        <time>2017-03-17T11:34:19Z</time>
      </trkpt>
      <trkpt lat="43.77447" lon="3.79763">
        <ele>388.42513617224</ele>
        <time>2017-03-17T11:34:39Z</time>
      </trkpt>
      <trkpt lat="43.7745" lon="3.79775">
        <ele>392.46691917383</ele>
        <time>2017-03-17T11:34:39Z</time>
      </trkpt>
      <trkpt lat="43.77451" lon="3.79789">
        <ele>396.05295914118</ele>
        <time>2017-03-17T11:34:56Z</time>
      </trkpt>
      <trkpt lat="43.77456" lon="3.798">
        <ele>399.1947208733</ele>
        <time>2017-03-17T11:34:56Z</time>
      </trkpt>
      <trkpt lat="43.77458" lon="3.79801">
        <ele>399.1947208733</ele>
        <time>2017-03-17T11:35:03Z</time>
      </trkpt>
      <trkpt lat="43.7746" lon="3.79807">
        <ele>399.1947208733</ele>
        <time>2017-03-17T11:35:11Z</time>
      </trkpt>
      <trkpt lat="43.77461" lon="3.79809">
        <ele>399.1947208733</ele>
        <time>2017-03-17T11:35:21Z</time>
      </trkpt>
      <trkpt lat="43.77464" lon="3.79813">
        <ele>402.10041515401</ele>
        <time>2017-03-17T11:35:23Z</time>
      </trkpt>
      <trkpt lat="43.77464" lon="3.79816">
        <ele>402.10041515401</ele>
        <time>2017-03-17T11:35:28Z</time>
      </trkpt>
      <trkpt lat="43.77463" lon="3.79817">
        <ele>402.10041515401</ele>
        <time>2017-03-17T11:35:37Z</time>
      </trkpt>
      <trkpt lat="43.77482" lon="3.79854">
        <ele>405.33656117183</ele>
        <time>2017-03-17T11:37:54Z</time>
      </trkpt>
      <trkpt lat="43.77485" lon="3.79861">
        <ele>405.33656117183</ele>
        <time>2017-03-17T11:37:55Z</time>
      </trkpt>
      <trkpt lat="43.77491" lon="3.79881">
        <ele>408.11339851633</ele>
        <time>2017-03-17T11:38:16Z</time>
      </trkpt>
      <trkpt lat="43.77493" lon="3.79889">
        <ele>408.11339851633</ele>
        <time>2017-03-17T11:38:16Z</time>
      </trkpt>
      <trkpt lat="43.77503" lon="3.79947">
        <ele>410.5879933094</ele>
        <time>2017-03-17T11:39:03Z</time>
      </trkpt>
      <trkpt lat="43.77503" lon="3.79949">
        <ele>410.5879933094</ele>
        <time>2017-03-17T11:39:20Z</time>
      </trkpt>
      <trkpt lat="43.77507" lon="3.79986">
        <ele>412.86791924017</ele>
        <time>2017-03-17T11:39:27Z</time>
      </trkpt>
      <trkpt lat="43.77507" lon="3.79987">
        <ele>412.86791924017</ele>
        <time>2017-03-17T11:39:28Z</time>
      </trkpt>
      <trkpt lat="43.7751" lon="3.79999">
        <ele>414.77999829796</ele>
        <time>2017-03-17T11:39:38Z</time>
      </trkpt>
      <trkpt lat="43.77527" lon="3.80048">
        <ele>416.58740013318</ele>
        <time>2017-03-17T11:40:26Z</time>
      </trkpt>
      <trkpt lat="43.77529" lon="3.80057">
        <ele>416.58740013318</ele>
        <time>2017-03-17T11:40:33Z</time>
      </trkpt>
      <trkpt lat="43.7753" lon="3.80061">
        <ele>418.06839668798</ele>
        <time>2017-03-17T11:40:37Z</time>
      </trkpt>
      <trkpt lat="43.77532" lon="3.80093">
        <ele>419.51955607973</ele>
        <time>2017-03-17T11:41:06Z</time>
      </trkpt>
      <trkpt lat="43.77538" lon="3.80122">
        <ele>420.80358424337</ele>
        <time>2017-03-17T11:41:42Z</time>
      </trkpt>
      <trkpt lat="43.77539" lon="3.80135">
        <ele>420.80358424337</ele>
        <time>2017-03-17T11:41:42Z</time>
      </trkpt>
      <trkpt lat="43.77541" lon="3.80151">
        <ele>422.18103796209</ele>
        <time>2017-03-17T11:42:06Z</time>
      </trkpt>
      <trkpt lat="43.77547" lon="3.80195">
        <ele>423.80530094578</ele>
        <time>2017-03-17T11:42:43Z</time>
      </trkpt>
      <trkpt lat="43.77547" lon="3.80198">
        <ele>423.80530094578</ele>
        <time>2017-03-17T11:42:43Z</time>
      </trkpt>
      <trkpt lat="43.7755" lon="3.80217">
        <ele>425.23107515614</ele>
        <time>2017-03-17T11:43:03Z</time>
      </trkpt>
      <trkpt lat="43.77551" lon="3.8022">
        <ele>425.23107515614</ele>
        <time>2017-03-17T11:43:03Z</time>
      </trkpt>
      <trkpt lat="43.77558" lon="3.80249">
        <ele>426.57135019988</ele>
        <time>2017-03-17T11:43:30Z</time>
      </trkpt>
      <trkpt lat="43.77557" lon="3.80257">
        <ele>426.57135019988</ele>
        <time>2017-03-17T11:43:36Z</time>
      </trkpt>
      <trkpt lat="43.77557" lon="3.80267">
        <ele>427.64455221713</ele>
        <time>2017-03-17T11:43:48Z</time>
      </trkpt>
      <trkpt lat="43.77558" lon="3.80276">
        <ele>427.64455221713</ele>
        <time>2017-03-17T11:43:51Z</time>
      </trkpt>
      <trkpt lat="43.7756" lon="3.80282">
        <ele>428.49464709483</ele>
        <time>2017-03-17T11:44:00Z</time>
      </trkpt>
      <trkpt lat="43.77566" lon="3.80326">
        <ele>429.19320291739</ele>
        <time>2017-03-17T11:44:55Z</time>
      </trkpt>
      <trkpt lat="43.77566" lon="3.8035">
        <ele>429.86688005564</ele>
        <time>2017-03-17T11:45:12Z</time>
      </trkpt>
      <trkpt lat="43.77566" lon="3.80374">
        <ele>430.46615667469</ele>
        <time>2017-03-17T11:45:45Z</time>
      </trkpt>
      <trkpt lat="43.77565" lon="3.8038">
        <ele>430.46615667469</ele>
        <time>2017-03-17T11:45:45Z</time>
      </trkpt>
      <trkpt lat="43.77568" lon="3.8039">
        <ele>430.9603238972</ele>
        <time>2017-03-17T11:46:00Z</time>
      </trkpt>
      <trkpt lat="43.77571" lon="3.80423">
        <ele>431.47138915426</ele>
        <time>2017-03-17T11:46:36Z</time>
      </trkpt>
      <trkpt lat="43.77565" lon="3.80444">
        <ele>431.94582413412</ele>
        <time>2017-03-17T11:46:51Z</time>
      </trkpt>
      <trkpt lat="43.77573" lon="3.80499">
        <ele>432.85802938273</ele>
        <time>2017-03-17T11:47:35Z</time>
      </trkpt>
      <trkpt lat="43.77573" lon="3.80503">
        <ele>432.85802938273</ele>
        <time>2017-03-17T11:47:38Z</time>
      </trkpt>
      <trkpt lat="43.77574" lon="3.80527">
        <ele>433.73010016583</ele>
        <time>2017-03-17T11:48:00Z</time>
      </trkpt>
      <trkpt lat="43.77582" lon="3.80589">
        <ele>435.1517656418</ele>
        <time>2017-03-17T11:49:09Z</time>
      </trkpt>
      <trkpt lat="43.77582" lon="3.80622">
        <ele>437.23032306313</ele>
        <time>2017-03-17T11:50:00Z</time>
      </trkpt>
      <trkpt lat="43.77582" lon="3.80623">
        <ele>437.23032306313</ele>
        <time>2017-03-17T11:50:06Z</time>
      </trkpt>
      <trkpt lat="43.77583" lon="3.80626">
        <ele>437.23032306313</ele>
        <time>2017-03-17T11:50:26Z</time>
      </trkpt>
      <trkpt lat="43.77589" lon="3.80662">
        <ele>439.48398352297</ele>
        <time>2017-03-17T11:51:42Z</time>
      </trkpt>
      <trkpt lat="43.77584" lon="3.80674">
        <ele>441.6335037894</ele>
        <time>2017-03-17T11:52:11Z</time>
      </trkpt>
      <trkpt lat="43.77593" lon="3.80672">
        <ele>443.48223463316</ele>
        <time>2017-03-17T11:52:33Z</time>
      </trkpt>
      <trkpt lat="43.77593" lon="3.80679">
        <ele>443.48223463316</ele>
        <time>2017-03-17T11:52:58Z</time>
      </trkpt>
      <trkpt lat="43.77593" lon="3.80693">
        <ele>445.29196083494</ele>
        <time>2017-03-17T11:52:58Z</time>
      </trkpt>
      <trkpt lat="43.77597" lon="3.80702">
        <ele>445.29196083494</ele>
        <time>2017-03-17T11:53:15Z</time>
      </trkpt>
      <trkpt lat="43.77602" lon="3.80711">
        <ele>446.93572017946</ele>
        <time>2017-03-17T11:53:15Z</time>
      </trkpt>
      <trkpt lat="43.77619" lon="3.80753">
        <ele>448.38519621331</ele>
        <time>2017-03-17T11:53:55Z</time>
      </trkpt>
      <trkpt lat="43.77619" lon="3.80754">
        <ele>448.38519621331</ele>
        <time>2017-03-17T11:53:55Z</time>
      </trkpt>
      <trkpt lat="43.77641" lon="3.80819">
        <ele>450.43330291424</ele>
        <time>2017-03-17T11:54:52Z</time>
      </trkpt>
      <trkpt lat="43.77642" lon="3.80825">
        <ele>450.43330291424</ele>
        <time>2017-03-17T11:54:52Z</time>
      </trkpt>
      <trkpt lat="43.77651" lon="3.80855">
        <ele>453.07739580609</ele>
        <time>2017-03-17T11:55:26Z</time>
      </trkpt>
      <trkpt lat="43.77652" lon="3.80864">
        <ele>453.07739580609</ele>
        <time>2017-03-17T11:55:26Z</time>
      </trkpt>
      <trkpt lat="43.77662" lon="3.80902">
        <ele>456.47389436646</ele>
        <time>2017-03-17T11:56:00Z</time>
      </trkpt>
      <trkpt lat="43.77663" lon="3.80904">
        <ele>456.47389436646</ele>
        <time>2017-03-17T11:56:00Z</time>
      </trkpt>
      <trkpt lat="43.77665" lon="3.80914">
        <ele>456.47389436646</ele>
        <time>2017-03-17T11:56:08Z</time>
      </trkpt>
      <trkpt lat="43.77664" lon="3.8092">
        <ele>459.86334063505</ele>
        <time>2017-03-17T11:56:13Z</time>
      </trkpt>
      <trkpt lat="43.77674" lon="3.80949">
        <ele>463.50510475367</ele>
        <time>2017-03-17T11:56:49Z</time>
      </trkpt>
      <trkpt lat="43.77677" lon="3.80958">
        <ele>463.50510475367</ele>
        <time>2017-03-17T11:56:49Z</time>
      </trkpt>
      <trkpt lat="43.77678" lon="3.80967">
        <ele>467.24581884209</ele>
        <time>2017-03-17T11:57:01Z</time>
      </trkpt>
      <trkpt lat="43.77677" lon="3.80969">
        <ele>467.24581884209</ele>
        <time>2017-03-17T11:57:01Z</time>
      </trkpt>
      <trkpt lat="43.77671" lon="3.8104">
        <ele>472.34910394437</ele>
        <time>2017-03-17T11:58:09Z</time>
      </trkpt>
      <trkpt lat="43.77666" lon="3.81062">
        <ele>477.48780172021</ele>
        <time>2017-03-17T11:58:35Z</time>
      </trkpt>
      <trkpt lat="43.77665" lon="3.81069">
        <ele>477.48780172021</ele>
        <time>2017-03-17T11:58:35Z</time>
      </trkpt>
      <trkpt lat="43.77659" lon="3.81125">
        <ele>483.38935013054</ele>
        <time>2017-03-17T11:59:24Z</time>
      </trkpt>
      <trkpt lat="43.77666" lon="3.81169">
        <ele>489.50968759421</ele>
        <time>2017-03-17T12:00:11Z</time>
      </trkpt>
      <trkpt lat="43.77665" lon="3.81176">
        <ele>489.50968759421</ele>
        <time>2017-03-17T12:00:11Z</time>
      </trkpt>
      <trkpt lat="43.77673" lon="3.81209">
        <ele>495.83667306549</ele>
        <time>2017-03-17T12:00:45Z</time>
      </trkpt>
      <trkpt lat="43.77675" lon="3.81216">
        <ele>495.83667306549</ele>
        <time>2017-03-17T12:01:00Z</time>
      </trkpt>
      <trkpt lat="43.77675" lon="3.81223">
        <ele>501.78110500676</ele>
        <time>2017-03-17T12:01:00Z</time>
      </trkpt>
      <trkpt lat="43.77675" lon="3.81256">
        <ele>507.46282205214</ele>
        <time>2017-03-17T12:01:23Z</time>
      </trkpt>
      <trkpt lat="43.77673" lon="3.81261">
        <ele>507.46282205214</ele>
        <time>2017-03-17T12:01:28Z</time>
      </trkpt>
      <trkpt lat="43.77672" lon="3.81266">
        <ele>507.46282205214</ele>
        <time>2017-03-17T12:01:33Z</time>
      </trkpt>
      <trkpt lat="43.77672" lon="3.8127">
        <ele>512.67594646317</ele>
        <time>2017-03-17T12:01:38Z</time>
      </trkpt>
      <trkpt lat="43.77671" lon="3.81273">
        <ele>512.67594646317</ele>
        <time>2017-03-17T12:01:43Z</time>
      </trkpt>
      <trkpt lat="43.77668" lon="3.81278">
        <ele>512.67594646317</ele>
        <time>2017-03-17T12:01:53Z</time>
      </trkpt>
      <trkpt lat="43.77667" lon="3.81281">
        <ele>512.67594646317</ele>
        <time>2017-03-17T12:01:58Z</time>
      </trkpt>
      <trkpt lat="43.77663" lon="3.81327">
        <ele>517.90902743702</ele>
        <time>2017-03-17T12:02:51Z</time>
      </trkpt>
      <trkpt lat="43.77664" lon="3.81333">
        <ele>517.90902743702</ele>
        <time>2017-03-17T12:02:51Z</time>
      </trkpt>
      <trkpt lat="43.77665" lon="3.81347">
        <ele>522.66258030025</ele>
        <time>2017-03-17T12:03:03Z</time>
      </trkpt>
      <trkpt lat="43.77669" lon="3.81364">
        <ele>526.92245592285</ele>
        <time>2017-03-17T12:03:25Z</time>
      </trkpt>
      <trkpt lat="43.77673" lon="3.81375">
        <ele>526.92245592285</ele>
        <time>2017-03-17T12:03:25Z</time>
      </trkpt>
      <trkpt lat="43.77677" lon="3.81378">
        <ele>530.77789275664</ele>
        <time>2017-03-17T12:03:39Z</time>
      </trkpt>
      <trkpt lat="43.77684" lon="3.81379">
        <ele>530.77789275664</ele>
        <time>2017-03-17T12:03:41Z</time>
      </trkpt>
      <trkpt lat="43.77694" lon="3.8138">
        <ele>534.41369265411</ele>
        <time>2017-03-17T12:04:10Z</time>
      </trkpt>
      <trkpt lat="43.77696" lon="3.8138">
        <ele>534.41369265411</ele>
        <time>2017-03-17T12:04:12Z</time>
      </trkpt>
      <trkpt lat="43.77696" lon="3.8138">
        <ele>534.41369265411</ele>
        <time>2017-03-17T12:04:13Z</time>
      </trkpt>
      <trkpt lat="43.77696" lon="3.8138">
        <ele>534.41369265411</ele>
        <time>2017-03-17T12:04:23Z</time>
      </trkpt>
      <trkpt lat="43.77707" lon="3.81376">
        <ele>537.85763073506</ele>
        <time>2017-03-17T12:05:04Z</time>
      </trkpt>
      <trkpt lat="43.77709" lon="3.81375">
        <ele>537.85763073506</ele>
        <time>2017-03-17T12:05:10Z</time>
      </trkpt>
      <trkpt lat="43.77711" lon="3.81372">
        <ele>537.85763073506</ele>
        <time>2017-03-17T12:05:12Z</time>
      </trkpt>
      <trkpt lat="43.77714" lon="3.81376">
        <ele>537.85763073506</ele>
        <time>2017-03-17T12:05:26Z</time>
      </trkpt>
      <trkpt lat="43.77726" lon="3.81369">
        <ele>541.16496352394</ele>
        <time>2017-03-17T12:06:12Z</time>
      </trkpt>
      <trkpt lat="43.77734" lon="3.81377">
        <ele>543.9837060188</ele>
        <time>2017-03-17T12:06:41Z</time>
      </trkpt>
      <trkpt lat="43.77736" lon="3.8138">
        <ele>543.9837060188</ele>
        <time>2017-03-17T12:06:41Z</time>
      </trkpt>
      <trkpt lat="43.77736" lon="3.8138">
        <ele>543.9837060188</ele>
        <time>2017-03-17T12:07:00Z</time>
      </trkpt>
      <trkpt lat="43.7775" lon="3.81351">
        <ele>547.17159884529</ele>
        <time>2017-03-17T12:07:30Z</time>
      </trkpt>
      <trkpt lat="43.7775" lon="3.81337">
        <ele>549.95079733351</ele>
        <time>2017-03-17T12:07:46Z</time>
      </trkpt>
      <trkpt lat="43.77757" lon="3.81304">
        <ele>552.64008756332</ele>
        <time>2017-03-17T12:08:36Z</time>
      </trkpt>
      <trkpt lat="43.77769" lon="3.813">
        <ele>555.53526513976</ele>
        <time>2017-03-17T12:09:13Z</time>
      </trkpt>
      <trkpt lat="43.77775" lon="3.8128">
        <ele>558.15999354147</ele>
        <time>2017-03-17T12:09:32Z</time>
      </trkpt>
      <trkpt lat="43.77777" lon="3.81272">
        <ele>558.15999354147</ele>
        <time>2017-03-17T12:09:32Z</time>
      </trkpt>
      <trkpt lat="43.77803" lon="3.8124">
        <ele>563.2612790961</ele>
        <time>2017-03-17T12:12:08Z</time>
      </trkpt>
      <trkpt lat="43.77812" lon="3.81253">
        <ele>568.19951792398</ele>
        <time>2017-03-17T12:12:47Z</time>
      </trkpt>
      <trkpt lat="43.77813" lon="3.81257">
        <ele>568.19951792398</ele>
        <time>2017-03-17T12:12:53Z</time>
      </trkpt>
      <trkpt lat="43.77815" lon="3.81257">
        <ele>568.19951792398</ele>
        <time>2017-03-17T12:13:11Z</time>
      </trkpt>
      <trkpt lat="43.7782" lon="3.81246">
        <ele>572.83726950239</ele>
        <time>2017-03-17T12:13:28Z</time>
      </trkpt>
      <trkpt lat="43.77828" lon="3.81238">
        <ele>577.29336475484</ele>
        <time>2017-03-17T12:14:08Z</time>
      </trkpt>
      <trkpt lat="43.77829" lon="3.81237">
        <ele>577.29336475484</ele>
        <time>2017-03-17T12:14:08Z</time>
      </trkpt>
      <trkpt lat="43.77831" lon="3.81233">
        <ele>577.29336475484</ele>
        <time>2017-03-17T12:14:25Z</time>
      </trkpt>
      <trkpt lat="43.77832" lon="3.81233">
        <ele>577.29336475484</ele>
        <time>2017-03-17T12:14:25Z</time>
      </trkpt>
      <trkpt lat="43.77845" lon="3.81235">
        <ele>581.88047824855</ele>
        <time>2017-03-17T12:15:06Z</time>
      </trkpt>
      <trkpt lat="43.77848" lon="3.81228">
        <ele>581.88047824855</ele>
        <time>2017-03-17T12:15:12Z</time>
      </trkpt>
      <trkpt lat="43.77847" lon="3.81218">
        <ele>586.31107284477</ele>
        <time>2017-03-17T12:15:59Z</time>
      </trkpt>
      <trkpt lat="43.77857" lon="3.81204">
        <ele>590.99725505681</ele>
        <time>2017-03-17T12:16:23Z</time>
      </trkpt>
      <trkpt lat="43.77852" lon="3.81183">
        <ele>595.44035464863</ele>
        <time>2017-03-17T12:16:48Z</time>
      </trkpt>
      <trkpt lat="43.77851" lon="3.81177">
        <ele>595.44035464863</ele>
        <time>2017-03-17T12:16:57Z</time>
      </trkpt>
      <trkpt lat="43.77852" lon="3.81156">
        <ele>599.78499520674</ele>
        <time>2017-03-17T12:17:31Z</time>
      </trkpt>
      <trkpt lat="43.77873" lon="3.81154">
        <ele>604.67035815739</ele>
        <time>2017-03-17T12:18:45Z</time>
      </trkpt>
      <trkpt lat="43.77873" lon="3.81153">
        <ele>604.67035815739</ele>
        <time>2017-03-17T12:18:45Z</time>
      </trkpt>
      <trkpt lat="43.77889" lon="3.81143">
        <ele>609.89392279489</ele>
        <time>2017-03-17T12:19:38Z</time>
      </trkpt>
      <trkpt lat="43.779" lon="3.81156">
        <ele>614.80576006752</ele>
        <time>2017-03-17T12:20:05Z</time>
      </trkpt>
      <trkpt lat="43.77901" lon="3.81163">
        <ele>614.80576006752</ele>
        <time>2017-03-17T12:20:05Z</time>
      </trkpt>
      <trkpt lat="43.77902" lon="3.81176">
        <ele>619.74219117982</ele>
        <time>2017-03-17T12:20:13Z</time>
      </trkpt>
      <trkpt lat="43.77902" lon="3.81177">
        <ele>619.74219117982</ele>
        <time>2017-03-17T12:20:21Z</time>
      </trkpt>
      <trkpt lat="43.77904" lon="3.81181">
        <ele>619.74219117982</ele>
        <time>2017-03-17T12:20:21Z</time>
      </trkpt>
      <trkpt lat="43.77904" lon="3.8118">
        <ele>619.74219117982</ele>
        <time>2017-03-17T12:20:49Z</time>
      </trkpt>
      <trkpt lat="43.77903" lon="3.81143">
        <ele>628.47569871222</ele>
        <time>2017-03-17T12:27:00Z</time>
      </trkpt>
      <trkpt lat="43.77903" lon="3.81164">
        <ele>636.41534775795</ele>
        <time>2017-03-17T12:27:59Z</time>
      </trkpt>
      <trkpt lat="43.77906" lon="3.81172">
        <ele>636.41534775795</ele>
        <time>2017-03-17T12:28:14Z</time>
      </trkpt>
      <trkpt lat="43.77906" lon="3.81175">
        <ele>636.41534775795</ele>
        <time>2017-03-17T12:28:14Z</time>
      </trkpt>
      <trkpt lat="43.77906" lon="3.81195">
        <ele>643.46346755116</ele>
        <time>2017-03-17T12:28:49Z</time>
      </trkpt>
      <trkpt lat="43.77907" lon="3.81202">
        <ele>643.46346755116</ele>
        <time>2017-03-17T12:29:05Z</time>
      </trkpt>
      <trkpt lat="43.7791" lon="3.81213">
        <ele>649.71970291467</ele>
        <time>2017-03-17T12:29:20Z</time>
      </trkpt>
      <trkpt lat="43.7791" lon="3.81213">
        <ele>649.71970291467</ele>
        <time>2017-03-17T12:29:23Z</time>
      </trkpt>
      <trkpt lat="43.77914" lon="3.81214">
        <ele>649.71970291467</ele>
        <time>2017-03-17T12:30:53Z</time>
      </trkpt>
      <trkpt lat="43.77913" lon="3.81216">
        <ele>649.71970291467</ele>
        <time>2017-03-17T12:32:40Z</time>
      </trkpt>
      <trkpt lat="43.77909" lon="3.8118">
        <ele>654.97600745725</ele>
        <time>2017-03-17T13:38:33Z</time>
      </trkpt>
      <trkpt lat="43.77903" lon="3.81174">
        <ele>654.97600745725</ele>
        <time>2017-03-17T13:38:53Z</time>
      </trkpt>
      <trkpt lat="43.77894" lon="3.81153">
        <ele>659.33099025879</ele>
        <time>2017-03-17T13:39:14Z</time>
      </trkpt>
      <trkpt lat="43.77888" lon="3.81151">
        <ele>659.33099025879</ele>
        <time>2017-03-17T13:39:28Z</time>
      </trkpt>
      <trkpt lat="43.77885" lon="3.81156">
        <ele>662.76338353133</ele>
        <time>2017-03-17T13:39:30Z</time>
      </trkpt>
      <trkpt lat="43.77879" lon="3.81169">
        <ele>665.45806079078</ele>
        <time>2017-03-17T13:39:56Z</time>
      </trkpt>
      <trkpt lat="43.77864" lon="3.81156">
        <ele>667.45877425446</ele>
        <time>2017-03-17T13:40:37Z</time>
      </trkpt>
      <trkpt lat="43.77852" lon="3.81159">
        <ele>668.79371895546</ele>
        <time>2017-03-17T13:41:06Z</time>
      </trkpt>
      <trkpt lat="43.77838" lon="3.81234">
        <ele>668.29464132143</ele>
        <time>2017-03-17T13:42:50Z</time>
      </trkpt>
      <trkpt lat="43.77835" lon="3.81235">
        <ele>668.29464132143</ele>
        <time>2017-03-17T13:42:51Z</time>
      </trkpt>
      <trkpt lat="43.77834" lon="3.81235">
        <ele>668.29464132143</ele>
        <time>2017-03-17T13:42:51Z</time>
      </trkpt>
      <trkpt lat="43.77834" lon="3.81234">
        <ele>668.29464132143</ele>
        <time>2017-03-17T13:43:07Z</time>
      </trkpt>
      <trkpt lat="43.77813" lon="3.81238">
        <ele>666.26813168039</ele>
        <time>2017-03-17T13:44:00Z</time>
      </trkpt>
      <trkpt lat="43.77809" lon="3.81242">
        <ele>666.26813168039</ele>
        <time>2017-03-17T13:44:09Z</time>
      </trkpt>
      <trkpt lat="43.77809" lon="3.81242">
        <ele>666.26813168039</ele>
        <time>2017-03-17T13:44:10Z</time>
      </trkpt>
      <trkpt lat="43.77803" lon="3.8125">
        <ele>663.72316196851</ele>
        <time>2017-03-17T13:44:54Z</time>
      </trkpt>
      <trkpt lat="43.778" lon="3.8125">
        <ele>663.72316196851</ele>
        <time>2017-03-17T13:44:56Z</time>
      </trkpt>
      <trkpt lat="43.7779" lon="3.81246">
        <ele>659.62138235633</ele>
        <time>2017-03-17T13:45:46Z</time>
      </trkpt>
      <trkpt lat="43.77781" lon="3.81232">
        <ele>655.13810558939</ele>
        <time>2017-03-17T13:45:53Z</time>
      </trkpt>
      <trkpt lat="43.7778" lon="3.81231">
        <ele>655.13810558939</ele>
        <time>2017-03-17T13:45:54Z</time>
      </trkpt>
      <trkpt lat="43.77781" lon="3.81282">
        <ele>649.50398913022</ele>
        <time>2017-03-17T13:46:50Z</time>
      </trkpt>
      <trkpt lat="43.7778" lon="3.81285">
        <ele>649.50398913022</ele>
        <time>2017-03-17T13:46:53Z</time>
      </trkpt>
      <trkpt lat="43.77778" lon="3.8128">
        <ele>649.50398913022</ele>
        <time>2017-03-17T13:47:11Z</time>
      </trkpt>
      <trkpt lat="43.77775" lon="3.81272">
        <ele>643.33516333768</ele>
        <time>2017-03-17T13:47:11Z</time>
      </trkpt>
      <trkpt lat="43.77772" lon="3.81263">
        <ele>643.33516333768</ele>
        <time>2017-03-17T13:47:28Z</time>
      </trkpt>
      <trkpt lat="43.77761" lon="3.81304">
        <ele>635.97870180712</ele>
        <time>2017-03-17T13:48:25Z</time>
      </trkpt>
      <trkpt lat="43.77756" lon="3.81299">
        <ele>635.97870180712</ele>
        <time>2017-03-17T13:48:27Z</time>
      </trkpt>
      <trkpt lat="43.77743" lon="3.81346">
        <ele>627.27941753172</ele>
        <time>2017-03-17T13:49:35Z</time>
      </trkpt>
      <trkpt lat="43.77715" lon="3.81366">
        <ele>617.60128261869</ele>
        <time>2017-03-17T13:50:53Z</time>
      </trkpt>
      <trkpt lat="43.77712" lon="3.8137">
        <ele>617.60128261869</ele>
        <time>2017-03-17T13:51:12Z</time>
      </trkpt>
      <trkpt lat="43.77693" lon="3.81393">
        <ele>607.11085000696</ele>
        <time>2017-03-17T13:51:55Z</time>
      </trkpt>
      <trkpt lat="43.77692" lon="3.8141">
        <ele>597.00177568062</ele>
        <time>2017-03-17T13:52:11Z</time>
      </trkpt>
      <trkpt lat="43.77691" lon="3.81411">
        <ele>597.00177568062</ele>
        <time>2017-03-17T13:52:11Z</time>
      </trkpt>
      <trkpt lat="43.7769" lon="3.8142">
        <ele>597.00177568062</ele>
        <time>2017-03-17T13:52:46Z</time>
      </trkpt>
      <trkpt lat="43.77695" lon="3.81454">
        <ele>585.10696734352</ele>
        <time>2017-03-17T13:54:05Z</time>
      </trkpt>
      <trkpt lat="43.77714" lon="3.81483">
        <ele>573.45801001256</ele>
        <time>2017-03-17T13:54:47Z</time>
      </trkpt>
      <trkpt lat="43.77703" lon="3.81523">
        <ele>561.61558152547</ele>
        <time>2017-03-17T13:56:32Z</time>
      </trkpt>
      <trkpt lat="43.77705" lon="3.81528">
        <ele>561.61558152547</ele>
        <time>2017-03-17T13:56:40Z</time>
      </trkpt>
      <trkpt lat="43.77702" lon="3.81546">
        <ele>550.39731440819</ele>
        <time>2017-03-17T13:57:05Z</time>
      </trkpt>
      <trkpt lat="43.77703" lon="3.81552">
        <ele>550.39731440819</ele>
        <time>2017-03-17T13:57:05Z</time>
      </trkpt>
      <trkpt lat="43.77727" lon="3.81623">
        <ele>538.4252854469</ele>
        <time>2017-03-17T13:58:49Z</time>
      </trkpt>
      <trkpt lat="43.77726" lon="3.81677">
        <ele>525.00042696003</ele>
        <time>2017-03-17T14:00:23Z</time>
      </trkpt>
      <trkpt lat="43.77723" lon="3.81681">
        <ele>525.00042696003</ele>
        <time>2017-03-17T14:00:43Z</time>
      </trkpt>
      <trkpt lat="43.77712" lon="3.81778">
        <ele>506.94171984888</ele>
        <time>2017-03-17T14:02:33Z</time>
      </trkpt>
      <trkpt lat="43.7771" lon="3.81788">
        <ele>506.94171984888</ele>
        <time>2017-03-17T14:02:42Z</time>
      </trkpt>
      <trkpt lat="43.7771" lon="3.81789">
        <ele>506.94171984888</ele>
        <time>2017-03-17T14:02:46Z</time>
      </trkpt>
      <trkpt lat="43.77709" lon="3.81792">
        <ele>489.9029257302</ele>
        <time>2017-03-17T14:02:48Z</time>
      </trkpt>
      <trkpt lat="43.77711" lon="3.81801">
        <ele>489.9029257302</ele>
        <time>2017-03-17T14:03:06Z</time>
      </trkpt>
      <trkpt lat="43.77708" lon="3.81805">
        <ele>473.84398859014</ele>
        <time>2017-03-17T14:03:06Z</time>
      </trkpt>
      <trkpt lat="43.77707" lon="3.81842">
        <ele>458.13301886558</ele>
        <time>2017-03-17T14:03:46Z</time>
      </trkpt>
      <trkpt lat="43.77709" lon="3.81886">
        <ele>442.5858736352</ele>
        <time>2017-03-17T14:04:40Z</time>
      </trkpt>
      <trkpt lat="43.77702" lon="3.81921">
        <ele>428.7884226832</ele>
        <time>2017-03-17T14:05:56Z</time>
      </trkpt>
      <trkpt lat="43.77702" lon="3.81939">
        <ele>416.48889684473</ele>
        <time>2017-03-17T14:06:19Z</time>
      </trkpt>
      <trkpt lat="43.77701" lon="3.81946">
        <ele>416.48889684473</ele>
        <time>2017-03-17T14:06:20Z</time>
      </trkpt>
      <trkpt lat="43.777" lon="3.81951">
        <ele>405.53500377528</ele>
        <time>2017-03-17T14:06:31Z</time>
      </trkpt>
      <trkpt lat="43.77699" lon="3.81955">
        <ele>405.53500377528</ele>
        <time>2017-03-17T14:06:32Z</time>
      </trkpt>
      <trkpt lat="43.77698" lon="3.81966">
        <ele>395.76617428461</ele>
        <time>2017-03-17T14:06:45Z</time>
      </trkpt>
      <trkpt lat="43.77696" lon="3.81968">
        <ele>395.76617428461</ele>
        <time>2017-03-17T14:06:48Z</time>
      </trkpt>
      <trkpt lat="43.77696" lon="3.81972">
        <ele>395.76617428461</ele>
        <time>2017-03-17T14:06:55Z</time>
      </trkpt>
      <trkpt lat="43.77693" lon="3.81985">
        <ele>386.97140798393</ele>
        <time>2017-03-17T14:07:10Z</time>
      </trkpt>
      <trkpt lat="43.77692" lon="3.8199">
        <ele>386.97140798393</ele>
        <time>2017-03-17T14:07:18Z</time>
      </trkpt>
      <trkpt lat="43.77685" lon="3.81996">
        <ele>379.02330716043</ele>
        <time>2017-03-17T14:07:35Z</time>
      </trkpt>
      <trkpt lat="43.77684" lon="3.81996">
        <ele>379.02330716043</ele>
        <time>2017-03-17T14:07:36Z</time>
      </trkpt>
      <trkpt lat="43.7768" lon="3.81996">
        <ele>379.02330716043</ele>
        <time>2017-03-17T14:07:43Z</time>
      </trkpt>
      <trkpt lat="43.77656" lon="3.82047">
        <ele>371.06529205602</ele>
        <time>2017-03-17T14:08:35Z</time>
      </trkpt>
      <trkpt lat="43.77644" lon="3.82084">
        <ele>363.23935118331</ele>
        <time>2017-03-17T14:09:07Z</time>
      </trkpt>
      <trkpt lat="43.77636" lon="3.82105">
        <ele>356.16558207018</ele>
        <time>2017-03-17T14:09:33Z</time>
      </trkpt>
      <trkpt lat="43.77624" lon="3.82125">
        <ele>349.4786477799</ele>
        <time>2017-03-17T14:09:43Z</time>
      </trkpt>
      <trkpt lat="43.77621" lon="3.8213">
        <ele>349.4786477799</ele>
        <time>2017-03-17T14:09:48Z</time>
      </trkpt>
      <trkpt lat="43.77619" lon="3.82134">
        <ele>349.4786477799</ele>
        <time>2017-03-17T14:09:53Z</time>
      </trkpt>
      <trkpt lat="43.77615" lon="3.82141">
        <ele>343.28475111864</ele>
        <time>2017-03-17T14:10:00Z</time>
      </trkpt>
      <trkpt lat="43.7761" lon="3.82152">
        <ele>337.85293753267</ele>
        <time>2017-03-17T14:10:11Z</time>
      </trkpt>
      <trkpt lat="43.77609" lon="3.82153">
        <ele>337.85293753267</ele>
        <time>2017-03-17T14:10:12Z</time>
      </trkpt>
      <trkpt lat="43.77609" lon="3.82155">
        <ele>337.85293753267</ele>
        <time>2017-03-17T14:10:13Z</time>
      </trkpt>
      <trkpt lat="43.77605" lon="3.82173">
        <ele>332.83863486468</ele>
        <time>2017-03-17T14:10:28Z</time>
      </trkpt>
      <trkpt lat="43.77602" lon="3.82176">
        <ele>332.83863486468</ele>
        <time>2017-03-17T14:10:33Z</time>
      </trkpt>
      <trkpt lat="43.776" lon="3.82182">
        <ele>332.83863486468</ele>
        <time>2017-03-17T14:10:38Z</time>
      </trkpt>
      <trkpt lat="43.77598" lon="3.82189">
        <ele>328.13680212798</ele>
        <time>2017-03-17T14:10:43Z</time>
      </trkpt>
      <trkpt lat="43.77597" lon="3.82194">
        <ele>328.13680212798</ele>
        <time>2017-03-17T14:10:48Z</time>
      </trkpt>
      <trkpt lat="43.77593" lon="3.82201">
        <ele>324.06645213272</ele>
        <time>2017-03-17T14:10:53Z</time>
      </trkpt>
      <trkpt lat="43.77593" lon="3.82207">
        <ele>324.06645213272</ele>
        <time>2017-03-17T14:10:58Z</time>
      </trkpt>
      <trkpt lat="43.77591" lon="3.82213">
        <ele>324.06645213272</ele>
        <time>2017-03-17T14:11:03Z</time>
      </trkpt>
      <trkpt lat="43.77591" lon="3.82218">
        <ele>320.54604661862</ele>
        <time>2017-03-17T14:11:08Z</time>
      </trkpt>
      <trkpt lat="43.77591" lon="3.82225">
        <ele>320.54604661862</ele>
        <time>2017-03-17T14:11:13Z</time>
      </trkpt>
      <trkpt lat="43.77591" lon="3.82231">
        <ele>317.55556050965</ele>
        <time>2017-03-17T14:11:18Z</time>
      </trkpt>
      <trkpt lat="43.77592" lon="3.82237">
        <ele>317.55556050965</ele>
        <time>2017-03-17T14:11:23Z</time>
      </trkpt>
      <trkpt lat="43.77589" lon="3.82241">
        <ele>317.55556050965</ele>
        <time>2017-03-17T14:11:28Z</time>
      </trkpt>
      <trkpt lat="43.77579" lon="3.82281">
        <ele>313.6044881292</ele>
        <time>2017-03-17T14:12:07Z</time>
      </trkpt>
      <trkpt lat="43.77578" lon="3.82283">
        <ele>313.6044881292</ele>
        <time>2017-03-17T14:12:08Z</time>
      </trkpt>
      <trkpt lat="43.77573" lon="3.82288">
        <ele>313.6044881292</ele>
        <time>2017-03-17T14:12:14Z</time>
      </trkpt>
      <trkpt lat="43.77564" lon="3.82296">
        <ele>309.69193260832</ele>
        <time>2017-03-17T14:12:35Z</time>
      </trkpt>
      <trkpt lat="43.77562" lon="3.82296">
        <ele>309.69193260832</ele>
        <time>2017-03-17T14:13:00Z</time>
      </trkpt>
      <trkpt lat="43.77561" lon="3.82301">
        <ele>309.69193260832</ele>
        <time>2017-03-17T14:13:44Z</time>
      </trkpt>
      <trkpt lat="43.77559" lon="3.82309">
        <ele>306.71428320343</ele>
        <time>2017-03-17T14:14:43Z</time>
      </trkpt>
      <trkpt lat="43.77548" lon="3.82316">
        <ele>304.40387579837</ele>
        <time>2017-03-17T14:15:03Z</time>
      </trkpt>
      <trkpt lat="43.77547" lon="3.82319">
        <ele>304.40387579837</ele>
        <time>2017-03-17T14:15:03Z</time>
      </trkpt>
      <trkpt lat="43.77529" lon="3.82353">
        <ele>302.49616320289</ele>
        <time>2017-03-17T14:15:52Z</time>
      </trkpt>
      <trkpt lat="43.77525" lon="3.82358">
        <ele>302.49616320289</ele>
        <time>2017-03-17T14:15:52Z</time>
      </trkpt>
      <trkpt lat="43.77525" lon="3.82359">
        <ele>302.49616320289</ele>
        <time>2017-03-17T14:15:53Z</time>
      </trkpt>
      <trkpt lat="43.7753" lon="3.82372">
        <ele>300.97527892792</ele>
        <time>2017-03-17T14:16:17Z</time>
      </trkpt>
      <trkpt lat="43.7753" lon="3.82379">
        <ele>300.97527892792</ele>
        <time>2017-03-17T14:16:17Z</time>
      </trkpt>
      <trkpt lat="43.77521" lon="3.8239">
        <ele>299.8397052345</ele>
        <time>2017-03-17T14:16:51Z</time>
      </trkpt>
      <trkpt lat="43.77521" lon="3.82393">
        <ele>299.8397052345</ele>
        <time>2017-03-17T14:16:51Z</time>
      </trkpt>
      <trkpt lat="43.77528" lon="3.82396">
        <ele>298.85629303059</ele>
        <time>2017-03-17T14:17:08Z</time>
      </trkpt>
      <trkpt lat="43.77528" lon="3.82395">
        <ele>298.85629303059</ele>
        <time>2017-03-17T14:17:13Z</time>
      </trkpt>
      <trkpt lat="43.77532" lon="3.824">
        <ele>298.85629303059</ele>
        <time>2017-03-17T14:17:23Z</time>
      </trkpt>
      <trkpt lat="43.77533" lon="3.82405">
        <ele>298.26972724386</ele>
        <time>2017-03-17T14:17:28Z</time>
      </trkpt>
      <trkpt lat="43.77535" lon="3.8241">
        <ele>298.26972724386</ele>
        <time>2017-03-17T14:17:33Z</time>
      </trkpt>
      <trkpt lat="43.77537" lon="3.82414">
        <ele>298.26972724386</ele>
        <time>2017-03-17T14:17:40Z</time>
      </trkpt>
      <trkpt lat="43.77539" lon="3.82427">
        <ele>297.98859126279</ele>
        <time>2017-03-17T14:18:00Z</time>
      </trkpt>
      <trkpt lat="43.77539" lon="3.82438">
        <ele>297.98859126279</ele>
        <time>2017-03-17T14:18:35Z</time>
      </trkpt>
      <trkpt lat="43.7755" lon="3.82451">
        <ele>297.97064819345</ele>
        <time>2017-03-17T14:18:38Z</time>
      </trkpt>
      <trkpt lat="43.77555" lon="3.82453">
        <ele>297.97064819345</ele>
        <time>2017-03-17T14:19:13Z</time>
      </trkpt>
      <trkpt lat="43.77557" lon="3.82453">
        <ele>297.97064819345</ele>
        <time>2017-03-17T14:19:18Z</time>
      </trkpt>
      <trkpt lat="43.77564" lon="3.82454">
        <ele>298.46438931334</ele>
        <time>2017-03-17T14:19:35Z</time>
      </trkpt>
      <trkpt lat="43.77566" lon="3.82455">
        <ele>298.46438931334</ele>
        <time>2017-03-17T14:19:35Z</time>
      </trkpt>
      <trkpt lat="43.77576" lon="3.82457">
        <ele>299.38176370464</ele>
        <time>2017-03-17T14:19:54Z</time>
      </trkpt>
      <trkpt lat="43.77578" lon="3.8246">
        <ele>299.38176370464</ele>
        <time>2017-03-17T14:19:54Z</time>
      </trkpt>
      <trkpt lat="43.77599" lon="3.82462">
        <ele>300.58259912636</ele>
        <time>2017-03-17T14:20:22Z</time>
      </trkpt>
      <trkpt lat="43.77605" lon="3.82463">
        <ele>300.58259912636</ele>
        <time>2017-03-17T14:20:27Z</time>
      </trkpt>
      <trkpt lat="43.7761" lon="3.82461">
        <ele>302.09504010635</ele>
        <time>2017-03-17T14:20:40Z</time>
      </trkpt>
      <trkpt lat="43.77621" lon="3.82454">
        <ele>303.75728447757</ele>
        <time>2017-03-17T14:21:00Z</time>
      </trkpt>
      <trkpt lat="43.77628" lon="3.82444">
        <ele>305.89494801561</ele>
        <time>2017-03-17T14:21:58Z</time>
      </trkpt>
      <trkpt lat="43.77639" lon="3.8243">
        <ele>308.13149829159</ele>
        <time>2017-03-17T14:22:48Z</time>
      </trkpt>
      <trkpt lat="43.77643" lon="3.82415">
        <ele>310.21913128168</ele>
        <time>2017-03-17T14:23:01Z</time>
      </trkpt>
      <trkpt lat="43.77646" lon="3.82402">
        <ele>312.27503571166</ele>
        <time>2017-03-17T14:23:18Z</time>
      </trkpt>
      <trkpt lat="43.77649" lon="3.82399">
        <ele>312.27503571166</ele>
        <time>2017-03-17T14:23:23Z</time>
      </trkpt>
      <trkpt lat="43.77668" lon="3.82383">
        <ele>314.03372828193</ele>
        <time>2017-03-17T14:24:06Z</time>
      </trkpt>
      <trkpt lat="43.7767" lon="3.82379">
        <ele>314.03372828193</ele>
        <time>2017-03-17T14:24:06Z</time>
      </trkpt>
      <trkpt lat="43.77698" lon="3.82356">
        <ele>315.23621392018</ele>
        <time>2017-03-17T14:24:51Z</time>
      </trkpt>
      <trkpt lat="43.77706" lon="3.82351">
        <ele>315.23621392018</ele>
        <time>2017-03-17T14:24:51Z</time>
      </trkpt>
      <trkpt lat="43.7775" lon="3.82299">
        <ele>315.48614404667</ele>
        <time>2017-03-17T14:26:08Z</time>
      </trkpt>
      <trkpt lat="43.77754" lon="3.82293">
        <ele>315.48614404667</ele>
        <time>2017-03-17T14:26:31Z</time>
      </trkpt>
      <trkpt lat="43.77774" lon="3.82286">
        <ele>315.6300879042</ele>
        <time>2017-03-17T14:26:31Z</time>
      </trkpt>
      <trkpt lat="43.77822" lon="3.82268">
        <ele>315.55983635273</ele>
        <time>2017-03-17T14:27:21Z</time>
      </trkpt>
      <trkpt lat="43.77825" lon="3.82267">
        <ele>315.55983635273</ele>
        <time>2017-03-17T14:27:23Z</time>
      </trkpt>
      <trkpt lat="43.77877" lon="3.82236">
        <ele>315.29162181649</ele>
        <time>2017-03-17T14:28:18Z</time>
      </trkpt>
      <trkpt lat="43.77918" lon="3.82205">
        <ele>315.11545027844</ele>
        <time>2017-03-17T14:28:59Z</time>
      </trkpt>
      <trkpt lat="43.77941" lon="3.82191">
        <ele>314.50774677942</ele>
        <time>2017-03-17T14:29:29Z</time>
      </trkpt>
      <trkpt lat="43.77941" lon="3.8219">
        <ele>314.50774677942</ele>
        <time>2017-03-17T14:29:37Z</time>
      </trkpt>
      <trkpt lat="43.77986" lon="3.8216">
        <ele>313.51840306053</ele>
        <time>2017-03-17T14:30:26Z</time>
      </trkpt>
      <trkpt lat="43.78025" lon="3.82109">
        <ele>310.73976067435</ele>
        <time>2017-03-17T14:31:24Z</time>
      </trkpt>
      <trkpt lat="43.78027" lon="3.82104">
        <ele>310.73976067435</ele>
        <time>2017-03-17T14:31:28Z</time>
      </trkpt>
      <trkpt lat="43.78039" lon="3.82059">
        <ele>308.01475988455</ele>
        <time>2017-03-17T14:32:07Z</time>
      </trkpt>
      <trkpt lat="43.78061" lon="3.82006">
        <ele>305.27876423396</ele>
        <time>2017-03-17T14:33:06Z</time>
      </trkpt>
      <trkpt lat="43.78084" lon="3.81985">
        <ele>302.61652259305</ele>
        <time>2017-03-17T14:33:35Z</time>
      </trkpt>
      <trkpt lat="43.78086" lon="3.81984">
        <ele>302.61652259305</ele>
        <time>2017-03-17T14:33:40Z</time>
      </trkpt>
      <trkpt lat="43.78101" lon="3.81978">
        <ele>299.87623832217</ele>
        <time>2017-03-17T14:34:03Z</time>
      </trkpt>
      <trkpt lat="43.78102" lon="3.81977">
        <ele>299.87623832217</ele>
        <time>2017-03-17T14:34:08Z</time>
      </trkpt>
      <trkpt lat="43.78106" lon="3.81972">
        <ele>299.87623832217</ele>
        <time>2017-03-17T14:34:23Z</time>
      </trkpt>
      <trkpt lat="43.78136" lon="3.81966">
        <ele>296.78821981005</ele>
        <time>2017-03-17T14:35:23Z</time>
      </trkpt>
      <trkpt lat="43.78137" lon="3.81966">
        <ele>296.78821981005</ele>
        <time>2017-03-17T14:35:28Z</time>
      </trkpt>
      <trkpt lat="43.78148" lon="3.81972">
        <ele>293.69482463328</ele>
        <time>2017-03-17T14:35:48Z</time>
      </trkpt>
      <trkpt lat="43.7817" lon="3.81968">
        <ele>290.12104036061</ele>
        <time>2017-03-17T14:36:26Z</time>
      </trkpt>
      <trkpt lat="43.78192" lon="3.81954">
        <ele>286.06077540214</ele>
        <time>2017-03-17T14:36:59Z</time>
      </trkpt>
      <trkpt lat="43.78211" lon="3.81939">
        <ele>281.51006296436</ele>
        <time>2017-03-17T14:37:51Z</time>
      </trkpt>
      <trkpt lat="43.78227" lon="3.81907">
        <ele>276.55334838977</ele>
        <time>2017-03-17T14:38:01Z</time>
      </trkpt>
      <trkpt lat="43.7823" lon="3.81894">
        <ele>272.07727878341</ele>
        <time>2017-03-17T14:38:26Z</time>
      </trkpt>
      <trkpt lat="43.78233" lon="3.8189">
        <ele>272.07727878341</ele>
        <time>2017-03-17T14:38:50Z</time>
      </trkpt>
      <trkpt lat="43.78241" lon="3.81877">
        <ele>267.23053732169</ele>
        <time>2017-03-17T14:38:50Z</time>
      </trkpt>
      <trkpt lat="43.78244" lon="3.81875">
        <ele>267.23053732169</ele>
        <time>2017-03-17T14:39:00Z</time>
      </trkpt>
      <trkpt lat="43.78259" lon="3.81851">
        <ele>262.59461465971</ele>
        <time>2017-03-17T14:39:22Z</time>
      </trkpt>
      <trkpt lat="43.78259" lon="3.81851">
        <ele>262.59461465971</ele>
        <time>2017-03-17T14:39:23Z</time>
      </trkpt>
      <trkpt lat="43.78308" lon="3.81789">
        <ele>257.72787860315</ele>
        <time>2017-03-17T14:40:40Z</time>
      </trkpt>
      <trkpt lat="43.78312" lon="3.81784">
        <ele>257.72787860315</ele>
        <time>2017-03-17T14:40:40Z</time>
      </trkpt>
      <trkpt lat="43.78318" lon="3.81755">
        <ele>252.98568691924</ele>
        <time>2017-03-17T14:41:04Z</time>
      </trkpt>
      <trkpt lat="43.7832" lon="3.81751">
        <ele>252.98568691924</ele>
        <time>2017-03-17T14:41:04Z</time>
      </trkpt>
      <trkpt lat="43.78335" lon="3.81728">
        <ele>248.32233674866</ele>
        <time>2017-03-17T14:41:30Z</time>
      </trkpt>
      <trkpt lat="43.78339" lon="3.81719">
        <ele>248.32233674866</ele>
        <time>2017-03-17T14:41:30Z</time>
      </trkpt>
      <trkpt lat="43.78346" lon="3.81711">
        <ele>243.78178433005</ele>
        <time>2017-03-17T14:41:39Z</time>
      </trkpt>
      <trkpt lat="43.78366" lon="3.81679">
        <ele>239.01534391564</ele>
        <time>2017-03-17T14:42:25Z</time>
      </trkpt>
      <trkpt lat="43.78368" lon="3.81675">
        <ele>239.01534391564</ele>
        <time>2017-03-17T14:43:21Z</time>
      </trkpt>
      <trkpt lat="43.78368" lon="3.81673">
        <ele>239.01534391564</ele>
        <time>2017-03-17T14:43:23Z</time>
      </trkpt>
      <trkpt lat="43.78365" lon="3.81652">
        <ele>234.14733168412</ele>
        <time>2017-03-17T14:43:43Z</time>
      </trkpt>
      <trkpt lat="43.78355" lon="3.81637">
        <ele>229.7255389871</ele>
        <time>2017-03-17T14:44:02Z</time>
      </trkpt>
      <trkpt lat="43.78348" lon="3.8162">
        <ele>225.69420206976</ele>
        <time>2017-03-17T14:44:25Z</time>
      </trkpt>
      <trkpt lat="43.78341" lon="3.81606">
        <ele>222.02933634354</ele>
        <time>2017-03-17T14:45:16Z</time>
      </trkpt>
      <trkpt lat="43.78334" lon="3.8159">
        <ele>218.9238030668</ele>
        <time>2017-03-17T14:45:43Z</time>
      </trkpt>
      <trkpt lat="43.78328" lon="3.81579">
        <ele>216.22321031239</ele>
        <time>2017-03-17T14:46:24Z</time>
      </trkpt>
      <trkpt lat="43.78319" lon="3.81565">
        <ele>214.28769884237</ele>
        <time>2017-03-17T14:47:00Z</time>
      </trkpt>
      <trkpt lat="43.78314" lon="3.81544">
        <ele>212.77142612101</ele>
        <time>2017-03-17T14:47:23Z</time>
      </trkpt>
      <trkpt lat="43.78309" lon="3.81533">
        <ele>211.62653905484</ele>
        <time>2017-03-17T14:47:37Z</time>
      </trkpt>
      <trkpt lat="43.78305" lon="3.8151">
        <ele>210.86526258193</ele>
        <time>2017-03-17T14:47:58Z</time>
      </trkpt>
      <trkpt lat="43.78305" lon="3.81496">
        <ele>210.36812169286</ele>
        <time>2017-03-17T14:48:14Z</time>
      </trkpt>
      <trkpt lat="43.78304" lon="3.81492">
        <ele>210.36812169286</ele>
        <time>2017-03-17T14:48:16Z</time>
      </trkpt>
      <trkpt lat="43.78302" lon="3.81427">
        <ele>210.71540194684</ele>
        <time>2017-03-17T14:49:25Z</time>
      </trkpt>
      <trkpt lat="43.78292" lon="3.8135">
        <ele>212.03889310003</ele>
        <time>2017-03-17T14:50:46Z</time>
      </trkpt>
      <trkpt lat="43.78291" lon="3.81346">
        <ele>212.03889310003</ele>
        <time>2017-03-17T14:50:46Z</time>
      </trkpt>
      <trkpt lat="43.78296" lon="3.81331">
        <ele>213.79508923708</ele>
        <time>2017-03-17T14:51:03Z</time>
      </trkpt>
      <trkpt lat="43.78298" lon="3.81329">
        <ele>213.79508923708</ele>
        <time>2017-03-17T14:51:09Z</time>
      </trkpt>
      <trkpt lat="43.78312" lon="3.8132">
        <ele>215.85394765353</ele>
        <time>2017-03-17T14:51:18Z</time>
      </trkpt>
      <trkpt lat="43.78316" lon="3.81319">
        <ele>215.85394765353</ele>
        <time>2017-03-17T14:51:23Z</time>
      </trkpt>
      <trkpt lat="43.78334" lon="3.81295">
        <ele>218.61302234603</ele>
        <time>2017-03-17T14:51:56Z</time>
      </trkpt>
      <trkpt lat="43.78334" lon="3.81293">
        <ele>218.61302234603</ele>
        <time>2017-03-17T14:51:58Z</time>
      </trkpt>
      <trkpt lat="43.78355" lon="3.81222">
        <ele>222.95762601375</ele>
        <time>2017-03-17T14:53:01Z</time>
      </trkpt>
      <trkpt lat="43.78354" lon="3.81221">
        <ele>222.95762601375</ele>
        <time>2017-03-17T14:53:01Z</time>
      </trkpt>
      <trkpt lat="43.78354" lon="3.81217">
        <ele>222.95762601375</ele>
        <time>2017-03-17T14:53:07Z</time>
      </trkpt>
      <trkpt lat="43.78336" lon="3.81082">
        <ele>228.52204234403</ele>
        <time>2017-03-17T14:54:39Z</time>
      </trkpt>
      <trkpt lat="43.78335" lon="3.81073">
        <ele>228.52204234403</ele>
        <time>2017-03-17T14:54:39Z</time>
      </trkpt>
      <trkpt lat="43.78327" lon="3.81047">
        <ele>233.84013725986</ele>
        <time>2017-03-17T14:55:15Z</time>
      </trkpt>
      <trkpt lat="43.78317" lon="3.8103">
        <ele>239.02435219561</ele>
        <time>2017-03-17T14:55:15Z</time>
      </trkpt>
      <trkpt lat="43.78317" lon="3.81028">
        <ele>239.02435219561</ele>
        <time>2017-03-17T14:55:19Z</time>
      </trkpt>
      <trkpt lat="43.78296" lon="3.80987">
        <ele>243.97778061009</ele>
        <time>2017-03-17T14:56:33Z</time>
      </trkpt>
      <trkpt lat="43.78291" lon="3.8098">
        <ele>243.97778061009</ele>
        <time>2017-03-17T14:56:33Z</time>
      </trkpt>
      <trkpt lat="43.78282" lon="3.8097">
        <ele>248.71249065288</ele>
        <time>2017-03-17T14:56:43Z</time>
      </trkpt>
      <trkpt lat="43.78279" lon="3.80966">
        <ele>248.71249065288</ele>
        <time>2017-03-17T14:56:48Z</time>
      </trkpt>
      <trkpt lat="43.78275" lon="3.80961">
        <ele>253.25505251372</ele>
        <time>2017-03-17T14:56:53Z</time>
      </trkpt>
      <trkpt lat="43.78273" lon="3.8096">
        <ele>253.25505251372</ele>
        <time>2017-03-17T14:56:58Z</time>
      </trkpt>
      <trkpt lat="43.78272" lon="3.80949">
        <ele>257.71748216375</ele>
        <time>2017-03-17T14:57:08Z</time>
      </trkpt>
      <trkpt lat="43.78272" lon="3.80945">
        <ele>257.71748216375</ele>
        <time>2017-03-17T14:57:13Z</time>
      </trkpt>
      <trkpt lat="43.78268" lon="3.80936">
        <ele>262.01686225017</ele>
        <time>2017-03-17T14:57:22Z</time>
      </trkpt>
      <trkpt lat="43.78245" lon="3.80887">
        <ele>266.58164752314</ele>
        <time>2017-03-17T14:58:32Z</time>
      </trkpt>
      <trkpt lat="43.78243" lon="3.8088">
        <ele>266.58164752314</ele>
        <time>2017-03-17T14:58:32Z</time>
      </trkpt>
      <trkpt lat="43.78238" lon="3.80875">
        <ele>270.91503538645</ele>
        <time>2017-03-17T14:58:40Z</time>
      </trkpt>
      <trkpt lat="43.78219" lon="3.80849">
        <ele>275.22074214838</ele>
        <time>2017-03-17T14:59:17Z</time>
      </trkpt>
      <trkpt lat="43.78219" lon="3.80848">
        <ele>275.22074214838</ele>
        <time>2017-03-17T14:59:18Z</time>
      </trkpt>
      <trkpt lat="43.78215" lon="3.80813">
        <ele>279.39984838718</ele>
        <time>2017-03-17T14:59:57Z</time>
      </trkpt>
      <trkpt lat="43.7822" lon="3.80786">
        <ele>283.63534927131</ele>
        <time>2017-03-17T15:00:30Z</time>
      </trkpt>
      <trkpt lat="43.78218" lon="3.80785">
        <ele>283.63534927131</ele>
        <time>2017-03-17T15:00:30Z</time>
      </trkpt>
      <trkpt lat="43.78162" lon="3.80669">
        <ele>288.64474970431</ele>
        <time>2017-03-17T15:02:28Z</time>
      </trkpt>
      <trkpt lat="43.78164" lon="3.80662">
        <ele>288.64474970431</ele>
        <time>2017-03-17T15:02:30Z</time>
      </trkpt>
      <trkpt lat="43.78163" lon="3.80651">
        <ele>293.28977949731</ele>
        <time>2017-03-17T15:02:47Z</time>
      </trkpt>
      <trkpt lat="43.7816" lon="3.80638">
        <ele>297.59813749277</ele>
        <time>2017-03-17T15:02:47Z</time>
      </trkpt>
      <trkpt lat="43.78159" lon="3.80628">
        <ele>297.59813749277</ele>
        <time>2017-03-17T15:03:09Z</time>
      </trkpt>
      <trkpt lat="43.78154" lon="3.80604">
        <ele>301.59693022233</ele>
        <time>2017-03-17T15:03:15Z</time>
      </trkpt>
      <trkpt lat="43.78146" lon="3.8053">
        <ele>305.26940457982</ele>
        <time>2017-03-17T15:04:13Z</time>
      </trkpt>
      <trkpt lat="43.78145" lon="3.80523">
        <ele>305.26940457982</ele>
        <time>2017-03-17T15:04:13Z</time>
      </trkpt>
      <trkpt lat="43.78146" lon="3.80497">
        <ele>308.47174412479</ele>
        <time>2017-03-17T15:04:31Z</time>
      </trkpt>
      <trkpt lat="43.78136" lon="3.80439">
        <ele>311.27425221445</ele>
        <time>2017-03-17T15:05:31Z</time>
      </trkpt>
      <trkpt lat="43.78129" lon="3.80331">
        <ele>313.31132192391</ele>
        <time>2017-03-17T15:06:27Z</time>
      </trkpt>
      <trkpt lat="43.78131" lon="3.80325">
        <ele>313.31132192391</ele>
        <time>2017-03-17T15:06:30Z</time>
      </trkpt>
      <trkpt lat="43.78136" lon="3.80291">
        <ele>314.72236454472</ele>
        <time>2017-03-17T15:06:55Z</time>
      </trkpt>
      <trkpt lat="43.78137" lon="3.80286">
        <ele>314.72236454472</ele>
        <time>2017-03-17T15:06:59Z</time>
      </trkpt>
      <trkpt lat="43.78137" lon="3.8028">
        <ele>314.72236454472</ele>
        <time>2017-03-17T15:07:14Z</time>
      </trkpt>
      <trkpt lat="43.78137" lon="3.80271">
        <ele>315.32168436027</ele>
        <time>2017-03-17T15:07:14Z</time>
      </trkpt>
      <trkpt lat="43.78115" lon="3.80162">
        <ele>314.14728357802</ele>
        <time>2017-03-17T15:08:51Z</time>
      </trkpt>
      <trkpt lat="43.78105" lon="3.80143">
        <ele>312.43159592931</ele>
        <time>2017-03-17T15:08:59Z</time>
      </trkpt>
      <trkpt lat="43.78105" lon="3.80142">
        <ele>312.43159592931</ele>
        <time>2017-03-17T15:08:59Z</time>
      </trkpt>
      <trkpt lat="43.78103" lon="3.80108">
        <ele>310.03576046263</ele>
        <time>2017-03-17T15:09:34Z</time>
      </trkpt>
      <trkpt lat="43.78104" lon="3.80099">
        <ele>310.03576046263</ele>
        <time>2017-03-17T15:09:34Z</time>
      </trkpt>
      <trkpt lat="43.78101" lon="3.80085">
        <ele>307.33767564769</ele>
        <time>2017-03-17T15:09:43Z</time>
      </trkpt>
      <trkpt lat="43.78091" lon="3.80038">
        <ele>304.18414861823</ele>
        <time>2017-03-17T15:10:18Z</time>
      </trkpt>
      <trkpt lat="43.7809" lon="3.80036">
        <ele>304.18414861823</ele>
        <time>2017-03-17T15:10:20Z</time>
      </trkpt>
      <trkpt lat="43.78088" lon="3.80032">
        <ele>304.18414861823</ele>
        <time>2017-03-17T15:10:42Z</time>
      </trkpt>
      <trkpt lat="43.78085" lon="3.80007">
        <ele>300.57878641096</ele>
        <time>2017-03-17T15:10:42Z</time>
      </trkpt>
      <trkpt lat="43.78085" lon="3.80005">
        <ele>300.57878641096</ele>
        <time>2017-03-17T15:10:51Z</time>
      </trkpt>
      <trkpt lat="43.78091" lon="3.79986">
        <ele>296.78570404873</ele>
        <time>2017-03-17T15:10:59Z</time>
      </trkpt>
      <trkpt lat="43.781" lon="3.79967">
        <ele>292.80520630979</ele>
        <time>2017-03-17T15:11:21Z</time>
      </trkpt>
      <trkpt lat="43.78108" lon="3.79953">
        <ele>288.69574959204</ele>
        <time>2017-03-17T15:11:34Z</time>
      </trkpt>
      <trkpt lat="43.78116" lon="3.79936">
        <ele>284.36770230881</ele>
        <time>2017-03-17T15:11:58Z</time>
      </trkpt>
      <trkpt lat="43.78113" lon="3.7991">
        <ele>279.6953064312</ele>
        <time>2017-03-17T15:12:08Z</time>
      </trkpt>
      <trkpt lat="43.78087" lon="3.79811">
        <ele>274.10171631455</ele>
        <time>2017-03-17T15:13:27Z</time>
      </trkpt>
      <trkpt lat="43.78086" lon="3.79799">
        <ele>274.10171631455</ele>
        <time>2017-03-17T15:13:27Z</time>
      </trkpt>
      <trkpt lat="43.78087" lon="3.79776">
        <ele>268.38068771659</ele>
        <time>2017-03-17T15:13:45Z</time>
      </trkpt>
      <trkpt lat="43.78086" lon="3.79703">
        <ele>262.02844419929</ele>
        <time>2017-03-17T15:14:43Z</time>
      </trkpt>
      <trkpt lat="43.78113" lon="3.79626">
        <ele>255.11292883197</ele>
        <time>2017-03-17T15:15:48Z</time>
      </trkpt>
      <trkpt lat="43.78114" lon="3.79623">
        <ele>255.11292883197</ele>
        <time>2017-03-17T15:15:48Z</time>
      </trkpt>
      <trkpt lat="43.78112" lon="3.79594">
        <ele>248.44773842547</ele>
        <time>2017-03-17T15:16:10Z</time>
      </trkpt>
      <trkpt lat="43.78112" lon="3.7959">
        <ele>248.44773842547</ele>
        <time>2017-03-17T15:16:10Z</time>
      </trkpt>
      <trkpt lat="43.78078" lon="3.7953">
        <ele>242.36772472693</ele>
        <time>2017-03-17T15:17:10Z</time>
      </trkpt>
      <trkpt lat="43.78076" lon="3.79525">
        <ele>242.36772472693</ele>
        <time>2017-03-17T15:17:33Z</time>
      </trkpt>
      <trkpt lat="43.78067" lon="3.79504">
        <ele>237.1811101359</ele>
        <time>2017-03-17T15:17:33Z</time>
      </trkpt>
      <trkpt lat="43.78053" lon="3.79447">
        <ele>233.44436335566</ele>
        <time>2017-03-17T15:18:29Z</time>
      </trkpt>
      <trkpt lat="43.78048" lon="3.7943">
        <ele>230.38598441619</ele>
        <time>2017-03-17T15:18:45Z</time>
      </trkpt>
      <trkpt lat="43.78048" lon="3.79423">
        <ele>230.38598441619</ele>
        <time>2017-03-17T15:18:45Z</time>
      </trkpt>
      <trkpt lat="43.78048" lon="3.79422">
        <ele>230.38598441619</ele>
        <time>2017-03-17T15:18:48Z</time>
      </trkpt>
      <trkpt lat="43.78048" lon="3.79421">
        <ele>230.38598441619</ele>
        <time>2017-03-17T15:19:13Z</time>
      </trkpt>
      <trkpt lat="43.77993" lon="3.79477">
        <ele>228.51374892938</ele>
        <time>2017-03-17T15:20:46Z</time>
      </trkpt>
      <trkpt lat="43.77953" lon="3.79529">
        <ele>227.7467461306</ele>
        <time>2017-03-17T15:21:55Z</time>
      </trkpt>
      <trkpt lat="43.77952" lon="3.7953">
        <ele>227.7467461306</ele>
        <time>2017-03-17T15:22:00Z</time>
      </trkpt>
      <trkpt lat="43.77946" lon="3.79535">
        <ele>227.7467461306</ele>
        <time>2017-03-17T15:22:16Z</time>
      </trkpt>
      <trkpt lat="43.7794" lon="3.79538">
        <ele>227.48768641895</ele>
        <time>2017-03-17T15:22:16Z</time>
      </trkpt>
      <trkpt lat="43.77904" lon="3.79527">
        <ele>228.63685548707</ele>
        <time>2017-03-17T15:23:53Z</time>
      </trkpt>
      <trkpt lat="43.77859" lon="3.79453">
        <ele>232.36995517829</ele>
        <time>2017-03-17T15:27:08Z</time>
      </trkpt>
      <trkpt lat="43.7785" lon="3.79397">
        <ele>236.54065806286</ele>
        <time>2017-03-17T15:27:55Z</time>
      </trkpt>
      <trkpt lat="43.77837" lon="3.79296">
        <ele>241.96897171539</ele>
        <time>2017-03-17T15:29:05Z</time>
      </trkpt>
      <trkpt lat="43.7784" lon="3.79178">
        <ele>248.61831367418</ele>
        <time>2017-03-17T15:30:18Z</time>
      </trkpt>
      <trkpt lat="43.7784" lon="3.79149">
        <ele>255.37038092379</ele>
        <time>2017-03-17T15:30:38Z</time>
      </trkpt>
      <trkpt lat="43.77837" lon="3.79123">
        <ele>262.26948324125</ele>
        <time>2017-03-17T15:31:00Z</time>
      </trkpt>
      <trkpt lat="43.77834" lon="3.79117">
        <ele>262.26948324125</ele>
        <time>2017-03-17T15:31:00Z</time>
      </trkpt>
      <trkpt lat="43.7781" lon="3.79074">
        <ele>269.87504760198</ele>
        <time>2017-03-17T15:31:44Z</time>
      </trkpt>
      <trkpt lat="43.77809" lon="3.7907">
        <ele>269.87504760198</ele>
        <time>2017-03-17T15:31:44Z</time>
      </trkpt>
      <trkpt lat="43.77804" lon="3.79052">
        <ele>277.36323951599</ele>
        <time>2017-03-17T15:32:05Z</time>
      </trkpt>
      <trkpt lat="43.77803" lon="3.79047">
        <ele>277.36323951599</ele>
        <time>2017-03-17T15:32:05Z</time>
      </trkpt>
      <trkpt lat="43.77754" lon="3.78947">
        <ele>285.61405174973</ele>
        <time>2017-03-17T15:33:50Z</time>
      </trkpt>
      <trkpt lat="43.77753" lon="3.78935">
        <ele>285.61405174973</ele>
        <time>2017-03-17T15:33:50Z</time>
      </trkpt>
      <trkpt lat="43.77754" lon="3.78922">
        <ele>293.14949760216</ele>
        <time>2017-03-17T15:33:59Z</time>
      </trkpt>
      <trkpt lat="43.77737" lon="3.78888">
        <ele>300.33172904733</ele>
        <time>2017-03-17T15:34:45Z</time>
      </trkpt>
      <trkpt lat="43.77737" lon="3.78881">
        <ele>300.33172904733</ele>
        <time>2017-03-17T15:34:45Z</time>
      </trkpt>
      <trkpt lat="43.77733" lon="3.78874">
        <ele>306.9067036366</ele>
        <time>2017-03-17T15:35:00Z</time>
      </trkpt>
      <trkpt lat="43.77713" lon="3.7883">
        <ele>312.98692586675</ele>
        <time>2017-03-17T15:35:49Z</time>
      </trkpt>
      <trkpt lat="43.77708" lon="3.78824">
        <ele>312.98692586675</ele>
        <time>2017-03-17T15:36:05Z</time>
      </trkpt>
      <trkpt lat="43.77706" lon="3.78822">
        <ele>312.98692586675</ele>
        <time>2017-03-17T15:36:05Z</time>
      </trkpt>
      <trkpt lat="43.77675" lon="3.78791">
        <ele>318.60631524966</ele>
        <time>2017-03-17T15:36:59Z</time>
      </trkpt>
      <trkpt lat="43.77675" lon="3.78784">
        <ele>318.60631524966</ele>
        <time>2017-03-17T15:37:18Z</time>
      </trkpt>
      <trkpt lat="43.77667" lon="3.78774">
        <ele>323.97089804286</ele>
        <time>2017-03-17T15:37:39Z</time>
      </trkpt>
      <trkpt lat="43.77665" lon="3.78773">
        <ele>323.97089804286</ele>
        <time>2017-03-17T15:37:39Z</time>
      </trkpt>
      <trkpt lat="43.77672" lon="3.78749">
        <ele>329.93558438799</ele>
        <time>2017-03-17T15:38:26Z</time>
      </trkpt>
      <trkpt lat="43.77665" lon="3.78699">
        <ele>337.01739874177</ele>
        <time>2017-03-17T15:39:06Z</time>
      </trkpt>
      <trkpt lat="43.77664" lon="3.78698">
        <ele>337.01739874177</ele>
        <time>2017-03-17T15:39:08Z</time>
      </trkpt>
      <trkpt lat="43.77654" lon="3.78692">
        <ele>343.63188798483</ele>
        <time>2017-03-17T15:39:24Z</time>
      </trkpt>
      <trkpt lat="43.77654" lon="3.78691">
        <ele>343.63188798483</ele>
        <time>2017-03-17T15:39:24Z</time>
      </trkpt>
      <trkpt lat="43.77633" lon="3.78685">
        <ele>350.09972358102</ele>
        <time>2017-03-17T15:40:00Z</time>
      </trkpt>
      <trkpt lat="43.77634" lon="3.78686">
        <ele>350.09972358102</ele>
        <time>2017-03-17T15:40:00Z</time>
      </trkpt>
      <trkpt lat="43.77634" lon="3.78695">
        <ele>350.09972358102</ele>
        <time>2017-03-17T15:40:07Z</time>
      </trkpt>
      <trkpt lat="43.77634" lon="3.78697">
        <ele>350.09972358102</ele>
        <time>2017-03-17T15:40:08Z</time>
      </trkpt>
      <trkpt lat="43.77635" lon="3.78702">
        <ele>356.12803283786</ele>
        <time>2017-03-17T15:40:13Z</time>
      </trkpt>
      <trkpt lat="43.77634" lon="3.78707">
        <ele>356.12803283786</ele>
        <time>2017-03-17T15:40:18Z</time>
      </trkpt>
      <trkpt lat="43.77634" lon="3.78708">
        <ele>356.12803283786</ele>
        <time>2017-03-17T15:40:23Z</time>
      </trkpt>
      <trkpt lat="43.77631" lon="3.78714">
        <ele>361.27422357584</ele>
        <time>2017-03-17T15:40:33Z</time>
      </trkpt>
      <trkpt lat="43.77629" lon="3.78717">
        <ele>361.27422357584</ele>
        <time>2017-03-17T15:40:38Z</time>
      </trkpt>
      <trkpt lat="43.77611" lon="3.78728">
        <ele>366.22640686575</ele>
        <time>2017-03-17T15:41:06Z</time>
      </trkpt>
      <trkpt lat="43.7761" lon="3.78727">
        <ele>366.22640686575</ele>
        <time>2017-03-17T15:41:08Z</time>
      </trkpt>
      <trkpt lat="43.77527" lon="3.78672">
        <ele>370.67202607191</ele>
        <time>2017-03-17T15:43:04Z</time>
      </trkpt>
      <trkpt lat="43.77513" lon="3.78658">
        <ele>374.45306871838</ele>
        <time>2017-03-17T15:43:30Z</time>
      </trkpt>
      <trkpt lat="43.77507" lon="3.78651">
        <ele>374.45306871838</ele>
        <time>2017-03-17T15:43:30Z</time>
      </trkpt>
      <trkpt lat="43.77498" lon="3.78636">
        <ele>377.58396660881</ele>
        <time>2017-03-17T15:43:45Z</time>
      </trkpt>
      <trkpt lat="43.77495" lon="3.78635">
        <ele>377.58396660881</ele>
        <time>2017-03-17T15:43:52Z</time>
      </trkpt>
      <trkpt lat="43.77484" lon="3.7863">
        <ele>380.09475886924</ele>
        <time>2017-03-17T15:44:09Z</time>
      </trkpt>
      <trkpt lat="43.77474" lon="3.78624">
        <ele>382.08748294568</ele>
        <time>2017-03-17T15:44:09Z</time>
      </trkpt>
      <trkpt lat="43.77465" lon="3.78618">
        <ele>383.5720498631</ele>
        <time>2017-03-17T15:44:18Z</time>
      </trkpt>
      <trkpt lat="43.774" lon="3.78622">
        <ele>383.83886252047</ele>
        <time>2017-03-17T15:45:31Z</time>
      </trkpt>
      <trkpt lat="43.77354" lon="3.78639">
        <ele>382.2053557883</ele>
        <time>2017-03-17T15:46:33Z</time>
      </trkpt>
      <trkpt lat="43.77351" lon="3.78656">
        <ele>380.32166024975</ele>
        <time>2017-03-17T15:46:54Z</time>
      </trkpt>
      <trkpt lat="43.77349" lon="3.78662">
        <ele>380.32166024975</ele>
        <time>2017-03-17T15:46:54Z</time>
      </trkpt>
      <trkpt lat="43.77302" lon="3.78772">
        <ele>376.40304905487</ele>
        <time>2017-03-17T15:48:50Z</time>
      </trkpt>
      <trkpt lat="43.77303" lon="3.78773">
        <ele>376.40304905487</ele>
        <time>2017-03-17T15:48:55Z</time>
      </trkpt>
      <trkpt lat="43.77302" lon="3.78776">
        <ele>376.40304905487</ele>
        <time>2017-03-17T15:49:28Z</time>
      </trkpt>
      <trkpt lat="43.77301" lon="3.78779">
        <ele>376.40304905487</ele>
        <time>2017-03-17T15:49:33Z</time>
      </trkpt>
      <trkpt lat="43.77299" lon="3.78783">
        <ele>372.34690082871</ele>
        <time>2017-03-17T15:49:38Z</time>
      </trkpt>
      <trkpt lat="43.77263" lon="3.78843">
        <ele>367.72120481922</ele>
        <time>2017-03-17T15:50:41Z</time>
      </trkpt>
      <trkpt lat="43.7726" lon="3.78853">
        <ele>367.72120481922</ele>
        <time>2017-03-17T15:50:42Z</time>
      </trkpt>
      <trkpt lat="43.77253" lon="3.78871">
        <ele>362.9775704135</ele>
        <time>2017-03-17T15:51:00Z</time>
      </trkpt>
      <trkpt lat="43.77208" lon="3.78925">
        <ele>357.77094095061</ele>
        <time>2017-03-17T15:52:00Z</time>
      </trkpt>
      <trkpt lat="43.7719" lon="3.78933">
        <ele>352.77717971419</ele>
        <time>2017-03-17T15:52:25Z</time>
      </trkpt>
      <trkpt lat="43.77174" lon="3.78942">
        <ele>347.77149720814</ele>
        <time>2017-03-17T15:52:25Z</time>
      </trkpt>
      <trkpt lat="43.7712" lon="3.78913">
        <ele>342.57426753614</ele>
        <time>2017-03-17T15:53:21Z</time>
      </trkpt>
      <trkpt lat="43.7712" lon="3.78914">
        <ele>342.57426753614</ele>
        <time>2017-03-17T15:53:23Z</time>
      </trkpt>
      <trkpt lat="43.77118" lon="3.78914">
        <ele>342.57426753614</ele>
        <time>2017-03-17T15:53:33Z</time>
      </trkpt>
      <trkpt lat="43.77113" lon="3.78911">
        <ele>342.57426753614</ele>
        <time>2017-03-17T15:53:38Z</time>
      </trkpt>
      <trkpt lat="43.77048" lon="3.78873">
        <ele>336.68788597201</ele>
        <time>2017-03-17T15:54:41Z</time>
      </trkpt>
      <trkpt lat="43.77046" lon="3.78873">
        <ele>336.68788597201</ele>
        <time>2017-03-17T15:54:41Z</time>
      </trkpt>
      <trkpt lat="43.77045" lon="3.78873">
        <ele>336.68788597201</ele>
        <time>2017-03-17T15:54:48Z</time>
      </trkpt>
      <trkpt lat="43.77036" lon="3.78875">
        <ele>331.09404414552</ele>
        <time>2017-03-17T15:54:48Z</time>
      </trkpt>
      <trkpt lat="43.77022" lon="3.78875">
        <ele>325.56267451399</ele>
        <time>2017-03-17T15:55:01Z</time>
      </trkpt>
      <trkpt lat="43.77021" lon="3.78875">
        <ele>325.56267451399</ele>
        <time>2017-03-17T15:55:03Z</time>
      </trkpt>
      <trkpt lat="43.76981" lon="3.79043">
        <ele>319.05861370186</ele>
        <time>2017-03-17T15:57:18Z</time>
      </trkpt>
      <trkpt lat="43.76978" lon="3.79055">
        <ele>312.9740557751</ele>
        <time>2017-03-17T15:57:18Z</time>
      </trkpt>
      <trkpt lat="43.7697" lon="3.79103">
        <ele>307.15617635009</ele>
        <time>2017-03-17T15:57:48Z</time>
      </trkpt>
      <trkpt lat="43.76965" lon="3.79135">
        <ele>301.67830540425</ele>
        <time>2017-03-17T15:58:10Z</time>
      </trkpt>
      <trkpt lat="43.76975" lon="3.7918">
        <ele>296.27545995418</ele>
        <time>2017-03-17T15:58:39Z</time>
      </trkpt>
      <trkpt lat="43.76996" lon="3.7921">
        <ele>291.3066424574</ele>
        <time>2017-03-17T15:59:03Z</time>
      </trkpt>
      <trkpt lat="43.77007" lon="3.79225">
        <ele>286.69920366681</ele>
        <time>2017-03-17T15:59:39Z</time>
      </trkpt>
      <trkpt lat="43.77027" lon="3.79239">
        <ele>282.6868915399</ele>
        <time>2017-03-17T15:59:40Z</time>
      </trkpt>
      <trkpt lat="43.77027" lon="3.79239">
        <ele>282.6868915399</ele>
        <time>2017-03-17T15:59:43Z</time>
      </trkpt>
    </trkseg>
  </trk>
</gpx>